Centennial, WY (82055)

4:47 PM MST on January 28, 2015 (GMT -0700)
Aspen Country | Change Station
CLOSE
Current Station
Personal Weather Station
Location: Centennial, WY
Elevation: 8050 ft
Nearby Weather Stations

Elev 8050 ft 41.29 °N, 106.15 °W | Updated 6 minutes ago

Overcast
Overcast
35.6 °F
Feels Like 29 °F
N
9.0
Wind Variable Wind from West
Gusts 10.0 mph

Today
High -- | Low -- °F
--% Chance of Precip.
Yesterday
High -- | Low -- °F
Precip. -- in
7:19 AM 5:15 PM
Waxing Gibbous, 69% visible
Pressure 30.08 in
Visibility 10.0 miles
Clouds Few 4000 ft
Overcast 6000 ft
Windchill 29 °F
Dew Point 26 °F
Humidity 67%
Rainfall 0.07 in
Snow Depth Not available.
UV 0 out of 12
Pollen 2.20 out of 12
Air Quality Not available.
Flu Activity Not available.
METAR KLAR 282253Z AUTO 26014KT 10SM FEW040 OVC060 04/M03 A3017 RMK AO2 PK WND 29031/2223 SLP186 T00441033

More Conditions Fewer Conditions

Pressure 30.08 in
Visibility 10.0 miles
Clouds Few 4000 ft
Overcast 6000 ft
Windchill 29 °F
Dew Point 26 °F
Humidity 67%
Rainfall 0.07 in
Snow Depth Not available.
UV 0 out of 12
Pollen 2.20 out of 12
Air Quality Not available.
Flu Activity Not available.
METAR KLAR 282253Z AUTO 26014KT 10SM FEW040 OVC060 04/M03 A3017 RMK AO2 PK WND 29031/2223 SLP186 T00441033

More Conditions Fewer Conditions

10-Day Weather Forecast

Almanac

Astronomy

Jan. 28, 2015 Rise Set
Actual Time
Civil Twilight
Nautical Twilight
Astronomical Twilight
Moon
Length of Visible Light
Length of Day
Tomorrow will be .
, % of the Moon is Illuminated

Today's Extremes

State Highs State Lows

Community

WunderPhotos

Upload Photos

1,791,298 photos uploaded!

WunderBlogs® & News

Nearby

Air Quality

  Air Quality AQ Index Pollutant
Not available.

Snow Depth

Station Depth Elevation

Earthquake Activity

City Distance Mag. Time & Date
Minimum magnitude displayed is 2.5.

Coastal Water Temperatures

Place Temperature

Nearby Weather Stations